Terminal Aerodrome Forecast
Issued by NWS Cleveland, OH

Home | Current Version | Previous Version | Text Only | Print | Product List | Glossary Off
Versions: 1 2 3 4 5 6 7 8 9 10 11 12 13 14 15 16 17 18 19 20 21 22 23 24 25 26 27 28

000
FTUS41 KCLE 152300 CCA
TAFYNG
TAF COR
KYNG 152341Z 1600/1624 14005KT 4SM BR OVC015
     FM160600 14005KT P6SM SCT015 OVC080
     FM161000 14008KT 5SM -RA BR OVC040
     FM161200 15008KT 3SM -RA BR OVC010
     FM161600 15010KT 4SM -RA BR OVC008=

USA.gov is the U.S. government's official web portal to all federal, state and local government web resources and services.